sensor_id;sensor_type;location;lat;lon;timestamp;P1;durP1;ratioP1;P2;durP2;ratioP2
61527;SDS011;47395;42.032;-8.634;2022-08-19T00:00:38;8.25;;;3.40;;
61527;SDS011;47395;42.032;-8.634;2022-08-19T00:02:39;8.25;;;3.60;;
61527;SDS011;47395;42.032;-8.634;2022-08-19T00:04:41;9.50;;;3.35;;
61527;SDS011;47395;42.032;-8.634;2022-08-19T00:06:42;6.60;;;3.70;;
61527;SDS011;47395;42.032;-8.634;2022-08-19T00:08:44;5.35;;;3.10;;
61527;SDS011;47395;42.032;-8.634;2022-08-19T00:10:45;4.00;;;3.13;;
61527;SDS011;47395;42.032;-8.634;2022-08-19T00:12:50;6.75;;;3.40;;
61527;SDS011;47395;42.032;-8.634;2022-08-19T00:14:52;5.32;;;3.22;;
61527;SDS011;47395;42.032;-8.634;2022-08-19T00:16:54;5.35;;;3.80;;
61527;SDS011;47395;42.032;-8.634;2022-08-19T00:18:55;9.57;;;3.72;;
61527;SDS011;47395;42.032;-8.634;2022-08-19T00:20:56;10.02;;;3.72;;
61527;SDS011;47395;42.032;-8.634;2022-08-19T00:22:57;7.43;;;3.72;;
61527;SDS011;47395;42.032;-8.634;2022-08-19T00:24:58;7.35;;;3.40;;
61527;SDS011;47395;42.032;-8.634;2022-08-19T00:26:59;6.18;;;3.85;;
61527;SDS011;47395;42.032;-8.634;2022-08-19T00:29:02;5.85;;;3.60;;
61527;SDS011;47395;42.032;-8.634;2022-08-19T00:31:04;4.68;;;3.60;;
61527;SDS011;47395;42.032;-8.634;2022-08-19T00:33:07;7.43;;;3.92;;
61527;SDS011;47395;42.032;-8.634;2022-08-19T00:35:08;6.40;;;3.42;;
61527;SDS011;47395;42.032;-8.634;2022-08-19T00:37:09;6.63;;;4.00;;
61527;SDS011;47395;42.032;-8.634;2022-08-19T00:39:11;4.53;;;3.03;;
61527;SDS011;47395;42.032;-8.634;2022-08-19T00:41:14;4.07;;;3.60;;
61527;SDS011;47395;42.032;-8.634;2022-08-19T00:43:21;5.10;;;3.50;;
61527;SDS011;47395;42.032;-8.634;2022-08-19T00:45:25;5.70;;;3.63;;
61527;SDS011;47395;42.032;-8.634;2022-08-19T00:47:28;7.47;;;3.60;;
61527;SDS011;47395;42.032;-8.634;2022-08-19T00:49:34;8.02;;;3.25;;
61527;SDS011;47395;42.032;-8.634;2022-08-19T00:51:37;5.80;;;3.30;;
61527;SDS011;47395;42.032;-8.634;2022-08-19T00:53:39;3.78;;;3.47;;
61527;SDS011;47395;42.032;-8.634;2022-08-19T00:55:40;4.18;;;3.50;;
61527;SDS011;47395;42.032;-8.634;2022-08-19T00:57:50;5.10;;;3.20;;
61527;SDS011;47395;42.032;-8.634;2022-08-19T00:59:56;5.32;;;3.63;;
61527;SDS011;47395;42.032;-8.634;2022-08-19T01:01:59;4.10;;;3.13;;
61527;SDS011;47395;42.032;-8.634;2022-08-19T01:04:00;12.95;;;3.50;;
61527;SDS011;47395;42.032;-8.634;2022-08-19T01:06:01;4.53;;;3.67;;
61527;SDS011;47395;42.032;-8.634;2022-08-19T01:08:03;7.00;;;3.45;;
61527;SDS011;47395;42.032;-8.634;2022-08-19T01:10:07;10.63;;;3.40;;
61527;SDS011;47395;42.032;-8.634;2022-08-19T01:12:11;3.90;;;3.38;;
61527;SDS011;47395;42.032;-8.634;2022-08-19T01:14:11;7.03;;;3.67;;
61527;SDS011;47395;42.032;-8.634;2022-08-19T01:16:13;8.80;;;4.05;;
61527;SDS011;47395;42.032;-8.634;2022-08-19T01:18:15;4.45;;;3.05;;
61527;SDS011;47395;42.032;-8.634;2022-08-19T01:20:20;9.80;;;4.07;;
61527;SDS011;47395;42.032;-8.634;2022-08-19T01:22:34;3.55;;;3.28;;
61527;SDS011;47395;42.032;-8.634;2022-08-19T01:24:42;6.35;;;3.95;;
61527;SDS011;47395;42.032;-8.634;2022-08-19T01:26:43;3.45;;;3.03;;
61527;SDS011;47395;42.032;-8.634;2022-08-19T01:28:46;5.50;;;3.83;;
61527;SDS011;47395;42.032;-8.634;2022-08-19T01:30:48;8.35;;;4.28;;
61527;SDS011;47395;42.032;-8.634;2022-08-19T01:32:50;4.75;;;3.70;;
61527;SDS011;47395;42.032;-8.634;2022-08-19T01:34:51;4.78;;;3.30;;
61527;SDS011;47395;42.032;-8.634;2022-08-19T01:36:52;3.70;;;3.50;;
61527;SDS011;47395;42.032;-8.634;2022-08-19T01:38:53;7.60;;;3.85;;
61527;SDS011;47395;42.032;-8.634;2022-08-19T01:40:54;3.78;;;3.38;;
61527;SDS011;47395;42.032;-8.634;2022-08-19T01:42:55;4.50;;;3.80;;
61527;SDS011;47395;42.032;-8.634;2022-08-19T01:44:56;7.28;;;3.85;;
61527;SDS011;47395;42.032;-8.634;2022-08-19T01:46:57;5.35;;;3.72;;
61527;SDS011;47395;42.032;-8.634;2022-08-19T01:48:58;6.13;;;3.28;;
61527;SDS011;47395;42.032;-8.634;2022-08-19T01:50:59;7.43;;;3.97;;
61527;SDS011;47395;42.032;-8.634;2022-08-19T01:53:01;4.53;;;3.40;;
61527;SDS011;47395;42.032;-8.634;2022-08-19T01:55:04;6.28;;;3.83;;
61527;SDS011;47395;42.032;-8.634;2022-08-19T01:57:08;10.30;;;4.30;;
61527;SDS011;47395;42.032;-8.634;2022-08-19T01:59:13;6.05;;;3.47;;
61527;SDS011;47395;42.032;-8.634;2022-08-19T02:01:18;3.97;;;3.63;;
61527;SDS011;47395;42.032;-8.634;2022-08-19T02:03:19;4.00;;;3.70;;
61527;SDS011;47395;42.032;-8.634;2022-08-19T02:05:20;10.00;;;3.75;;
61527;SDS011;47395;42.032;-8.634;2022-08-19T02:07:21;4.15;;;3.60;;
61527;SDS011;47395;42.032;-8.634;2022-08-19T02:09:22;6.68;;;3.90;;
61527;SDS011;47395;42.032;-8.634;2022-08-19T02:11:24;3.97;;;3.55;;
61527;SDS011;47395;42.032;-8.634;2022-08-19T02:13:28;5.65;;;3.28;;
61527;SDS011;47395;42.032;-8.634;2022-08-19T02:15:29;4.63;;;3.80;;
61527;SDS011;47395;42.032;-8.634;2022-08-19T02:17:30;9.55;;;4.40;;
61527;SDS011;47395;42.032;-8.634;2022-08-19T02:19:31;7.45;;;3.80;;
61527;SDS011;47395;42.032;-8.634;2022-08-19T02:21:33;7.72;;;3.97;;
61527;SDS011;47395;42.032;-8.634;2022-08-19T02:23:34;4.32;;;4.03;;
61527;SDS011;47395;42.032;-8.634;2022-08-19T02:25:35;4.78;;;4.30;;
61527;SDS011;47395;42.032;-8.634;2022-08-19T02:27:36;7.05;;;4.65;;
61527;SDS011;47395;42.032;-8.634;2022-08-19T02:29:37;4.40;;;4.00;;
61527;SDS011;47395;42.032;-8.634;2022-08-19T02:31:38;4.38;;;3.83;;
61527;SDS011;47395;42.032;-8.634;2022-08-19T02:33:39;4.57;;;4.10;;
61527;SDS011;47395;42.032;-8.634;2022-08-19T02:35:43;17.75;;;3.67;;
61527;SDS011;47395;42.032;-8.634;2022-08-19T02:37:46;5.18;;;4.00;;
61527;SDS011;47395;42.032;-8.634;2022-08-19T02:40:06;4.30;;;4.00;;
61527;SDS011;47395;42.032;-8.634;2022-08-19T02:42:07;7.93;;;4.50;;
61527;SDS011;47395;42.032;-8.634;2022-08-19T02:44:08;7.15;;;4.15;;
61527;SDS011;47395;42.032;-8.634;2022-08-19T02:46:13;4.15;;;3.67;;
61527;SDS011;47395;42.032;-8.634;2022-08-19T02:48:19;9.90;;;4.30;;
61527;SDS011;47395;42.032;-8.634;2022-08-19T02:50:21;8.23;;;4.13;;
61527;SDS011;47395;42.032;-8.634;2022-08-19T02:52:21;4.35;;;4.05;;
61527;SDS011;47395;42.032;-8.634;2022-08-19T02:54:23;5.60;;;4.30;;
61527;SDS011;47395;42.032;-8.634;2022-08-19T02:56:24;5.72;;;3.97;;
61527;SDS011;47395;42.032;-8.634;2022-08-19T02:58:27;5.45;;;4.15;;
61527;SDS011;47395;42.032;-8.634;2022-08-19T03:00:28;9.13;;;4.13;;
61527;SDS011;47395;42.032;-8.634;2022-08-19T03:02:29;6.07;;;4.80;;
61527;SDS011;47395;42.032;-8.634;2022-08-19T03:04:30;5.15;;;3.83;;
61527;SDS011;47395;42.032;-8.634;2022-08-19T03:06:31;7.60;;;4.03;;
61527;SDS011;47395;42.032;-8.634;2022-08-19T03:08:36;4.25;;;3.85;;
61527;SDS011;47395;42.032;-8.634;2022-08-19T03:10:44;6.30;;;4.57;;
61527;SDS011;47395;42.032;-8.634;2022-08-19T03:12:47;8.07;;;4.35;;
61527;SDS011;47395;42.032;-8.634;2022-08-19T03:14:47;7.72;;;4.00;;
61527;SDS011;47395;42.032;-8.634;2022-08-19T03:16:49;4.32;;;3.92;;
61527;SDS011;47395;42.032;-8.634;2022-08-19T03:18:52;5.95;;;4.25;;
61527;SDS011;47395;42.032;-8.634;2022-08-19T03:20:54;4.05;;;3.78;;
61527;SDS011;47395;42.032;-8.634;2022-08-19T03:22:56;9.18;;;4.10;;
61527;SDS011;47395;42.032;-8.634;2022-08-19T03:24:57;7.25;;;4.43;;
61527;SDS011;47395;42.032;-8.634;2022-08-19T03:26:59;5.05;;;4.18;;
61527;SDS011;47395;42.032;-8.634;2022-08-19T03:29:03;7.63;;;4.63;;
61527;SDS011;47395;42.032;-8.634;2022-08-19T03:31:06;6.68;;;4.28;;
61527;SDS011;47395;42.032;-8.634;2022-08-19T03:33:12;8.90;;;4.38;;
61527;SDS011;47395;42.032;-8.634;2022-08-19T03:35:13;7.82;;;4.25;;
61527;SDS011;47395;42.032;-8.634;2022-08-19T03:37:14;5.05;;;4.55;;
61527;SDS011;47395;42.032;-8.634;2022-08-19T03:39:15;5.15;;;4.10;;
61527;SDS011;47395;42.032;-8.634;2022-08-19T03:41:18;7.65;;;4.32;;
61527;SDS011;47395;42.032;-8.634;2022-08-19T03:43:21;4.68;;;4.10;;
61527;SDS011;47395;42.032;-8.634;2022-08-19T03:45:22;9.38;;;4.50;;
61527;SDS011;47395;42.032;-8.634;2022-08-19T03:47:23;4.50;;;4.10;;
61527;SDS011;47395;42.032;-8.634;2022-08-19T03:49:25;6.13;;;4.65;;
61527;SDS011;47395;42.032;-8.634;2022-08-19T03:51:31;6.07;;;4.55;;
61527;SDS011;47395;42.032;-8.634;2022-08-19T03:53:34;6.75;;;3.88;;
61527;SDS011;47395;42.032;-8.634;2022-08-19T03:55:39;5.97;;;4.20;;
61527;SDS011;47395;42.032;-8.634;2022-08-19T03:57:41;8.98;;;4.30;;
61527;SDS011;47395;42.032;-8.634;2022-08-19T03:59:42;4.40;;;4.00;;
61527;SDS011;47395;42.032;-8.634;2022-08-19T04:03:54;7.85;;;3.92;;
61527;SDS011;47395;42.032;-8.634;2022-08-19T04:05:57;6.85;;;4.65;;
61527;SDS011;47395;42.032;-8.634;2022-08-19T04:07:58;9.13;;;4.47;;
61527;SDS011;47395;42.032;-8.634;2022-08-19T04:10:02;6.20;;;4.47;;
61527;SDS011;47395;42.032;-8.634;2022-08-19T04:12:04;3.83;;;3.63;;
61527;SDS011;47395;42.032;-8.634;2022-08-19T04:14:05;6.80;;;4.40;;
61527;SDS011;47395;42.032;-8.634;2022-08-19T04:16:08;8.20;;;4.38;;
61527;SDS011;47395;42.032;-8.634;2022-08-19T04:18:10;7.97;;;4.70;;
61527;SDS011;47395;42.032;-8.634;2022-08-19T04:20:11;5.13;;;4.40;;
61527;SDS011;47395;42.032;-8.634;2022-08-19T04:22:12;5.10;;;4.38;;
61527;SDS011;47395;42.032;-8.634;2022-08-19T04:24:13;12.73;;;4.60;;
61527;SDS011;47395;42.032;-8.634;2022-08-19T04:26:15;4.93;;;3.97;;
61527;SDS011;47395;42.032;-8.634;2022-08-19T04:28:18;4.95;;;4.50;;
61527;SDS011;47395;42.032;-8.634;2022-08-19T04:30:20;11.68;;;4.45;;
61527;SDS011;47395;42.032;-8.634;2022-08-19T04:32:22;7.68;;;4.82;;
61527;SDS011;47395;42.032;-8.634;2022-08-19T04:34:24;8.82;;;4.57;;
61527;SDS011;47395;42.032;-8.634;2022-08-19T04:36:30;5.35;;;4.80;;
61527;SDS011;47395;42.032;-8.634;2022-08-19T04:38:33;5.15;;;4.32;;
61527;SDS011;47395;42.032;-8.634;2022-08-19T04:40:34;11.90;;;5.18;;
61527;SDS011;47395;42.032;-8.634;2022-08-19T04:42:58;9.43;;;4.50;;
61527;SDS011;47395;42.032;-8.634;2022-08-19T04:45:01;9.43;;;5.18;;
61527;SDS011;47395;42.032;-8.634;2022-08-19T04:47:07;10.48;;;4.32;;
61527;SDS011;47395;42.032;-8.634;2022-08-19T04:49:08;7.38;;;4.63;;
61527;SDS011;47395;42.032;-8.634;2022-08-19T04:51:10;10.35;;;4.63;;
61527;SDS011;47395;42.032;-8.634;2022-08-19T04:53:16;6.47;;;4.72;;
61527;SDS011;47395;42.032;-8.634;2022-08-19T04:55:17;5.55;;;4.93;;
61527;SDS011;47395;42.032;-8.634;2022-08-19T04:59:22;11.30;;;5.25;;
61527;SDS011;47395;42.032;-8.634;2022-08-19T05:01:24;5.05;;;4.55;;
61527;SDS011;47395;42.032;-8.634;2022-08-19T05:03:31;5.22;;;4.72;;
61527;SDS011;47395;42.032;-8.634;2022-08-19T05:05:37;4.93;;;4.32;;
61527;SDS011;47395;42.032;-8.634;2022-08-19T05:07:39;11.18;;;5.03;;
61527;SDS011;47395;42.032;-8.634;2022-08-19T05:09:41;5.88;;;5.07;;
61527;SDS011;47395;42.032;-8.634;2022-08-19T05:11:43;6.65;;;5.38;;
61527;SDS011;47395;42.032;-8.634;2022-08-19T05:13:47;7.13;;;4.82;;
61527;SDS011;47395;42.032;-8.634;2022-08-19T05:15:56;7.47;;;4.90;;
61527;SDS011;47395;42.032;-8.634;2022-08-19T05:17:58;6.00;;;5.05;;
61527;SDS011;47395;42.032;-8.634;2022-08-19T05:20:17;8.80;;;4.93;;
61527;SDS011;47395;42.032;-8.634;2022-08-19T05:22:37;8.00;;;4.60;;
61527;SDS011;47395;42.032;-8.634;2022-08-19T05:24:38;7.55;;;4.45;;
61527;SDS011;47395;42.032;-8.634;2022-08-19T05:26:41;5.72;;;5.20;;
61527;SDS011;47395;42.032;-8.634;2022-08-19T05:28:46;6.50;;;4.63;;
61527;SDS011;47395;42.032;-8.634;2022-08-19T05:30:48;6.35;;;4.80;;
61527;SDS011;47395;42.032;-8.634;2022-08-19T05:32:51;9.80;;;4.65;;
61527;SDS011;47395;42.032;-8.634;2022-08-19T05:34:52;5.03;;;4.47;;
61527;SDS011;47395;42.032;-8.634;2022-08-19T05:36:55;9.00;;;4.82;;
61527;SDS011;47395;42.032;-8.634;2022-08-19T05:38:58;5.32;;;4.82;;
61527;SDS011;47395;42.032;-8.634;2022-08-19T05:40:59;5.05;;;4.65;;
61527;SDS011;47395;42.032;-8.634;2022-08-19T05:43:00;9.07;;;4.95;;
61527;SDS011;47395;42.032;-8.634;2022-08-19T05:45:01;9.25;;;4.78;;
61527;SDS011;47395;42.032;-8.634;2022-08-19T05:47:04;5.75;;;4.65;;
61527;SDS011;47395;42.032;-8.634;2022-08-19T05:49:08;8.30;;;5.00;;
61527;SDS011;47395;42.032;-8.634;2022-08-19T05:51:09;5.80;;;4.93;;
61527;SDS011;47395;42.032;-8.634;2022-08-19T05:53:11;6.35;;;4.90;;
61527;SDS011;47395;42.032;-8.634;2022-08-19T05:55:12;8.00;;;5.10;;
61527;SDS011;47395;42.032;-8.634;2022-08-19T05:57:14;5.05;;;4.55;;
61527;SDS011;47395;42.032;-8.634;2022-08-19T05:59:16;6.88;;;4.65;;
61527;SDS011;47395;42.032;-8.634;2022-08-19T06:01:18;9.45;;;4.75;;
61527;SDS011;47395;42.032;-8.634;2022-08-19T06:03:19;5.93;;;4.85;;
61527;SDS011;47395;42.032;-8.634;2022-08-19T06:05:20;8.25;;;4.97;;
61527;SDS011;47395;42.032;-8.634;2022-08-19T06:07:21;9.93;;;4.82;;
61527;SDS011;47395;42.032;-8.634;2022-08-19T06:09:23;4.90;;;4.55;;
61527;SDS011;47395;42.032;-8.634;2022-08-19T06:11:45;6.60;;;4.65;;
61527;SDS011;47395;42.032;-8.634;2022-08-19T06:13:49;8.65;;;4.78;;
61527;SDS011;47395;42.032;-8.634;2022-08-19T06:15:55;6.53;;;4.43;;
61527;SDS011;47395;42.032;-8.634;2022-08-19T06:17:56;5.22;;;4.72;;
61527;SDS011;47395;42.032;-8.634;2022-08-19T06:19:57;10.68;;;5.45;;
61527;SDS011;47395;42.032;-8.634;2022-08-19T06:21:59;5.07;;;4.10;;
61527;SDS011;47395;42.032;-8.634;2022-08-19T06:24:01;4.82;;;4.43;;
61527;SDS011;47395;42.032;-8.634;2022-08-19T06:26:02;4.85;;;4.32;;
61527;SDS011;47395;42.032;-8.634;2022-08-19T06:28:04;5.38;;;4.40;;
61527;SDS011;47395;42.032;-8.634;2022-08-19T06:30:05;5.22;;;4.60;;
61527;SDS011;47395;42.032;-8.634;2022-08-19T06:32:07;5.57;;;4.10;;
61527;SDS011;47395;42.032;-8.634;2022-08-19T06:34:08;7.95;;;4.10;;
61527;SDS011;47395;42.032;-8.634;2022-08-19T06:36:44;4.32;;;4.03;;
61527;SDS011;47395;42.032;-8.634;2022-08-19T06:38:43;5.18;;;4.10;;
61527;SDS011;47395;42.032;-8.634;2022-08-19T06:40:43;4.75;;;4.32;;
61527;SDS011;47395;42.032;-8.634;2022-08-19T06:42:45;5.00;;;3.78;;
61527;SDS011;47395;42.032;-8.634;2022-08-19T06:44:46;4.68;;;4.20;;
61527;SDS011;47395;42.032;-8.634;2022-08-19T06:46:49;5.78;;;3.90;;
61527;SDS011;47395;42.032;-8.634;2022-08-19T06:48:50;3.53;;;3.15;;
61527;SDS011;47395;42.032;-8.634;2022-08-19T06:50:53;5.05;;;3.60;;
61527;SDS011;47395;42.032;-8.634;2022-08-19T06:52:54;9.13;;;4.40;;
61527;SDS011;47395;42.032;-8.634;2022-08-19T06:54:56;4.50;;;3.67;;
61527;SDS011;47395;42.032;-8.634;2022-08-19T06:56:58;12.73;;;4.07;;
61527;SDS011;47395;42.032;-8.634;2022-08-19T06:59:06;8.65;;;3.97;;
61527;SDS011;47395;42.032;-8.634;2022-08-19T07:01:10;9.65;;;4.07;;
61527;SDS011;47395;42.032;-8.634;2022-08-19T07:03:11;9.13;;;3.85;;
61527;SDS011;47395;42.032;-8.634;2022-08-19T07:05:12;4.45;;;4.05;;
61527;SDS011;47395;42.032;-8.634;2022-08-19T07:07:14;9.68;;;4.05;;
61527;SDS011;47395;42.032;-8.634;2022-08-19T07:09:16;5.93;;;4.28;;
61527;SDS011;47395;42.032;-8.634;2022-08-19T07:11:18;5.43;;;4.07;;
61527;SDS011;47395;42.032;-8.634;2022-08-19T07:13:19;7.20;;;4.25;;
61527;SDS011;47395;42.032;-8.634;2022-08-19T07:15:21;4.53;;;3.92;;
61527;SDS011;47395;42.032;-8.634;2022-08-19T07:17:23;6.15;;;3.80;;
61527;SDS011;47395;42.032;-8.634;2022-08-19T07:19:25;6.78;;;3.83;;
61527;SDS011;47395;42.032;-8.634;2022-08-19T07:21:27;5.45;;;3.85;;
61527;SDS011;47395;42.032;-8.634;2022-08-19T07:23:28;5.80;;;3.30;;
61527;SDS011;47395;42.032;-8.634;2022-08-19T07:25:29;3.97;;;3.67;;
61527;SDS011;47395;42.032;-8.634;2022-08-19T07:27:30;7.32;;;3.53;;
61527;SDS011;47395;42.032;-8.634;2022-08-19T07:29:32;4.95;;;3.50;;
61527;SDS011;47395;42.032;-8.634;2022-08-19T07:31:35;4.03;;;3.33;;
61527;SDS011;47395;42.032;-8.634;2022-08-19T07:33:37;4.88;;;3.28;;
61527;SDS011;47395;42.032;-8.634;2022-08-19T07:35:39;4.80;;;3.40;;
61527;SDS011;47395;42.032;-8.634;2022-08-19T07:37:40;8.27;;;3.20;;
61527;SDS011;47395;42.032;-8.634;2022-08-19T07:39:44;5.43;;;3.40;;
61527;SDS011;47395;42.032;-8.634;2022-08-19T07:41:45;7.38;;;3.53;;
61527;SDS011;47395;42.032;-8.634;2022-08-19T07:43:47;7.68;;;3.40;;
61527;SDS011;47395;42.032;-8.634;2022-08-19T07:45:48;6.25;;;2.90;;
61527;SDS011;47395;42.032;-8.634;2022-08-19T07:47:49;6.70;;;3.15;;
61527;SDS011;47395;42.032;-8.634;2022-08-19T07:49:50;3.58;;;3.13;;
61527;SDS011;47395;42.032;-8.634;2022-08-19T07:51:56;9.00;;;3.20;;
61527;SDS011;47395;42.032;-8.634;2022-08-19T07:53:59;4.55;;;3.13;;
61527;SDS011;47395;42.032;-8.634;2022-08-19T07:56:00;5.00;;;3.47;;
61527;SDS011;47395;42.032;-8.634;2022-08-19T07:58:04;6.15;;;3.40;;
61527;SDS011;47395;42.032;-8.634;2022-08-19T08:00:10;4.70;;;3.10;;
61527;SDS011;47395;42.032;-8.634;2022-08-19T08:02:15;4.95;;;2.97;;
61527;SDS011;47395;42.032;-8.634;2022-08-19T08:04:16;11.25;;;3.10;;
61527;SDS011;47395;42.032;-8.634;2022-08-19T08:06:37;6.45;;;3.20;;
61527;SDS011;47395;42.032;-8.634;2022-08-19T08:08:59;5.18;;;3.40;;
61527;SDS011;47395;42.032;-8.634;2022-08-19T08:11:13;18.08;;;4.03;;
61527;SDS011;47395;42.032;-8.634;2022-08-19T08:13:14;6.05;;;3.10;;
61527;SDS011;47395;42.032;-8.634;2022-08-19T08:15:15;5.70;;;3.13;;
61527;SDS011;47395;42.032;-8.634;2022-08-19T08:17:18;3.55;;;3.10;;
61527;SDS011;47395;42.032;-8.634;2022-08-19T08:19:21;5.97;;;2.97;;
61527;SDS011;47395;42.032;-8.634;2022-08-19T08:21:24;3.97;;;2.90;;
61527;SDS011;47395;42.032;-8.634;2022-08-19T08:23:25;5.22;;;3.15;;
61527;SDS011;47395;42.032;-8.634;2022-08-19T08:25:28;3.85;;;3.30;;
61527;SDS011;47395;42.032;-8.634;2022-08-19T08:27:31;7.80;;;3.63;;
61527;SDS011;47395;42.032;-8.634;2022-08-19T08:29:35;7.13;;;3.28;;
61527;SDS011;47395;42.032;-8.634;2022-08-19T08:31:36;5.82;;;3.10;;
61527;SDS011;47395;42.032;-8.634;2022-08-19T08:33:37;5.18;;;3.33;;
61527;SDS011;47395;42.032;-8.634;2022-08-19T08:35:39;7.30;;;3.30;;
61527;SDS011;47395;42.032;-8.634;2022-08-19T08:37:48;4.93;;;3.15;;
61527;SDS011;47395;42.032;-8.634;2022-08-19T08:39:50;3.88;;;2.88;;
61527;SDS011;47395;42.032;-8.634;2022-08-19T08:41:59;4.00;;;3.20;;
61527;SDS011;47395;42.032;-8.634;2022-08-19T08:44:11;3.40;;;3.10;;
61527;SDS011;47395;42.032;-8.634;2022-08-19T08:46:21;3.20;;;2.90;;
61527;SDS011;47395;42.032;-8.634;2022-08-19T08:48:50;4.60;;;2.90;;
61527;SDS011;47395;42.032;-8.634;2022-08-19T08:50:57;4.15;;;3.08;;
61527;SDS011;47395;42.032;-8.634;2022-08-19T08:53:00;4.20;;;3.05;;
61527;SDS011;47395;42.032;-8.634;2022-08-19T08:55:08;4.15;;;3.15;;
61527;SDS011;47395;42.032;-8.634;2022-08-19T08:57:29;3.35;;;3.05;;
61527;SDS011;47395;42.032;-8.634;2022-08-19T08:59:36;6.55;;;3.00;;
61527;SDS011;47395;42.032;-8.634;2022-08-19T09:01:41;3.88;;;3.17;;
61527;SDS011;47395;42.032;-8.634;2022-08-19T09:03:42;6.30;;;2.92;;
61527;SDS011;47395;42.032;-8.634;2022-08-19T09:15:00;4.53;;;2.90;;
61527;SDS011;47395;42.032;-8.634;2022-08-19T09:17:04;7.45;;;2.80;;
61527;SDS011;47395;42.032;-8.634;2022-08-19T09:19:08;3.03;;;2.72;;
61527;SDS011;47395;42.032;-8.634;2022-08-19T09:21:11;5.93;;;3.03;;
61527;SDS011;47395;42.032;-8.634;2022-08-19T09:23:12;4.45;;;2.72;;
61527;SDS011;47395;42.032;-8.634;2022-08-19T09:25:14;6.47;;;2.65;;
61527;SDS011;47395;42.032;-8.634;2022-08-19T09:27:17;7.47;;;3.10;;
61527;SDS011;47395;42.032;-8.634;2022-08-19T09:29:24;6.32;;;2.75;;
61527;SDS011;47395;42.032;-8.634;2022-08-19T09:31:26;2.88;;;2.55;;
61527;SDS011;47395;42.032;-8.634;2022-08-19T09:33:28;3.95;;;2.83;;
61527;SDS011;47395;42.032;-8.634;2022-08-19T09:35:29;3.20;;;2.42;;
61527;SDS011;47395;42.032;-8.634;2022-08-19T09:37:30;2.83;;;2.63;;
61527;SDS011;47395;42.032;-8.634;2022-08-19T09:39:31;4.72;;;2.50;;
61527;SDS011;47395;42.032;-8.634;2022-08-19T09:41:32;3.00;;;2.45;;
61527;SDS011;47395;42.032;-8.634;2022-08-19T09:43:33;4.68;;;2.42;;
61527;SDS011;47395;42.032;-8.634;2022-08-19T09:45:36;2.53;;;2.33;;
61527;SDS011;47395;42.032;-8.634;2022-08-19T09:47:37;3.72;;;2.20;;
61527;SDS011;47395;42.032;-8.634;2022-08-19T09:49:38;4.82;;;2.50;;
61527;SDS011;47395;42.032;-8.634;2022-08-19T09:51:40;4.22;;;2.42;;
61527;SDS011;47395;42.032;-8.634;2022-08-19T09:53:44;5.05;;;2.40;;
61527;SDS011;47395;42.032;-8.634;2022-08-19T09:55:46;6.63;;;2.63;;
61527;SDS011;47395;42.032;-8.634;2022-08-19T09:57:47;2.95;;;2.42;;
61527;SDS011;47395;42.032;-8.634;2022-08-19T09:59:48;4.47;;;2.50;;
61527;SDS011;47395;42.032;-8.634;2022-08-19T10:01:48;10.63;;;2.63;;
61527;SDS011;47395;42.032;-8.634;2022-08-19T10:03:51;4.03;;;2.55;;
61527;SDS011;47395;42.032;-8.634;2022-08-19T10:05:55;6.40;;;2.67;;
61527;SDS011;47395;42.032;-8.634;2022-08-19T10:08:00;2.40;;;2.20;;
61527;SDS011;47395;42.032;-8.634;2022-08-19T10:10:05;2.42;;;2.25;;
61527;SDS011;47395;42.032;-8.634;2022-08-19T10:12:07;3.83;;;2.25;;
61527;SDS011;47395;42.032;-8.634;2022-08-19T10:14:09;4.40;;;2.22;;
61527;SDS011;47395;42.032;-8.634;2022-08-19T10:16:12;4.30;;;1.98;;
61527;SDS011;47395;42.032;-8.634;2022-08-19T10:18:16;2.05;;;1.95;;
61527;SDS011;47395;42.032;-8.634;2022-08-19T10:20:18;5.07;;;2.10;;
61527;SDS011;47395;42.032;-8.634;2022-08-19T10:22:19;2.78;;;2.05;;
61527;SDS011;47395;42.032;-8.634;2022-08-19T10:24:19;2.47;;;1.95;;
61527;SDS011;47395;42.032;-8.634;2022-08-19T10:26:23;4.97;;;1.95;;
61527;SDS011;47395;42.032;-8.634;2022-08-19T10:28:26;2.45;;;2.25;;
61527;SDS011;47395;42.032;-8.634;2022-08-19T10:30:27;5.95;;;2.33;;
61527;SDS011;47395;42.032;-8.634;2022-08-19T10:32:28;5.25;;;2.65;;
61527;SDS011;47395;42.032;-8.634;2022-08-19T10:34:30;3.67;;;2.05;;
61527;SDS011;47395;42.032;-8.634;2022-08-19T10:36:33;5.30;;;2.40;;
61527;SDS011;47395;42.032;-8.634;2022-08-19T10:38:36;3.45;;;2.20;;
61527;SDS011;47395;42.032;-8.634;2022-08-19T10:40:38;2.28;;;2.05;;
61527;SDS011;47395;42.032;-8.634;2022-08-19T10:42:38;3.63;;;2.30;;
61527;SDS011;47395;42.032;-8.634;2022-08-19T10:44:39;4.47;;;2.40;;
61527;SDS011;47395;42.032;-8.634;2022-08-19T10:46:43;1.73;;;1.63;;
61527;SDS011;47395;42.032;-8.634;2022-08-19T10:48:47;4.30;;;2.30;;
61527;SDS011;47395;42.032;-8.634;2022-08-19T10:50:49;2.38;;;2.03;;
61527;SDS011;47395;42.032;-8.634;2022-08-19T10:53:08;2.40;;;2.13;;
61527;SDS011;47395;42.032;-8.634;2022-08-19T10:55:09;2.47;;;2.22;;
61527;SDS011;47395;42.032;-8.634;2022-08-19T10:57:32;2.95;;;2.25;;
61527;SDS011;47395;42.032;-8.634;2022-08-19T10:59:33;2.58;;;1.92;;
61527;SDS011;47395;42.032;-8.634;2022-08-19T11:01:35;2.55;;;2.00;;
61527;SDS011;47395;42.032;-8.634;2022-08-19T11:03:36;2.13;;;1.92;;
61527;SDS011;47395;42.032;-8.634;2022-08-19T11:05:37;3.53;;;2.15;;
61527;SDS011;47395;42.032;-8.634;2022-08-19T11:07:39;2.38;;;2.17;;
61527;SDS011;47395;42.032;-8.634;2022-08-19T11:09:41;10.63;;;2.20;;
61527;SDS011;47395;42.032;-8.634;2022-08-19T11:11:43;4.88;;;2.10;;
61527;SDS011;47395;42.032;-8.634;2022-08-19T11:13:44;3.70;;;1.90;;
61527;SDS011;47395;42.032;-8.634;2022-08-19T11:15:45;2.45;;;2.03;;
61527;SDS011;47395;42.032;-8.634;2022-08-19T11:17:47;2.13;;;2.00;;
61527;SDS011;47395;42.032;-8.634;2022-08-19T11:19:48;4.30;;;2.20;;
61527;SDS011;47395;42.032;-8.634;2022-08-19T11:21:50;6.32;;;2.20;;
61527;SDS011;47395;42.032;-8.634;2022-08-19T11:23:55;4.18;;;2.05;;
61527;SDS011;47395;42.032;-8.634;2022-08-19T11:25:57;4.60;;;2.17;;
61527;SDS011;47395;42.032;-8.634;2022-08-19T11:27:59;6.88;;;2.08;;
61527;SDS011;47395;42.032;-8.634;2022-08-19T11:30:00;3.58;;;2.13;;
61527;SDS011;47395;42.032;-8.634;2022-08-19T11:32:04;2.33;;;1.80;;
61527;SDS011;47395;42.032;-8.634;2022-08-19T11:34:08;2.00;;;1.90;;
61527;SDS011;47395;42.032;-8.634;2022-08-19T11:36:13;1.95;;;1.73;;
61527;SDS011;47395;42.032;-8.634;2022-08-19T11:38:14;1.85;;;1.63;;
61527;SDS011;47395;42.032;-8.634;2022-08-19T11:40:15;1.65;;;1.55;;
61527;SDS011;47395;42.032;-8.634;2022-08-19T11:42:16;4.85;;;1.60;;
61527;SDS011;47395;42.032;-8.634;2022-08-19T11:44:37;1.42;;;1.38;;
61527;SDS011;47395;42.032;-8.634;2022-08-19T11:46:38;4.95;;;1.60;;
61527;SDS011;47395;42.032;-8.634;2022-08-19T11:48:39;2.15;;;1.85;;
61527;SDS011;47395;42.032;-8.634;2022-08-19T11:50:41;2.05;;;1.60;;
61527;SDS011;47395;42.032;-8.634;2022-08-19T11:52:43;1.52;;;1.20;;
61527;SDS011;47395;42.032;-8.634;2022-08-19T11:54:45;2.80;;;1.58;;
61527;SDS011;47395;42.032;-8.634;2022-08-19T11:56:46;1.95;;;1.38;;
61527;SDS011;47395;42.032;-8.634;2022-08-19T11:58:48;1.42;;;1.33;;
61527;SDS011;47395;42.032;-8.634;2022-08-19T12:00:49;1.60;;;1.50;;
61527;SDS011;47395;42.032;-8.634;2022-08-19T12:02:50;6.18;;;1.40;;
61527;SDS011;47395;42.032;-8.634;2022-08-19T12:04:51;1.20;;;1.10;;
61527;SDS011;47395;42.032;-8.634;2022-08-19T12:06:52;1.38;;;1.20;;
61527;SDS011;47395;42.032;-8.634;2022-08-19T12:08:53;1.67;;;1.50;;
61527;SDS011;47395;42.032;-8.634;2022-08-19T12:10:54;3.08;;;1.40;;
61527;SDS011;47395;42.032;-8.634;2022-08-19T12:12:56;1.50;;;1.40;;
61527;SDS011;47395;42.032;-8.634;2022-08-19T12:14:57;3.65;;;1.35;;
61527;SDS011;47395;42.032;-8.634;2022-08-19T12:16:58;2.20;;;1.20;;
61527;SDS011;47395;42.032;-8.634;2022-08-19T12:19:00;2.92;;;1.30;;
61527;SDS011;47395;42.032;-8.634;2022-08-19T12:21:04;1.63;;;1.42;;
61527;SDS011;47395;42.032;-8.634;2022-08-19T12:23:05;6.63;;;1.40;;